createdAt,value
2019-04-27T00:02:45.924Z,98001.02
2019-04-27T00:05:32.074Z,98003.92
2019-04-27T00:08:13.993Z,98007.16
2019-04-27T00:10:48.638Z,98001.63
2019-04-27T00:13:17.371Z,98006.12
2019-04-27T00:16:09.973Z,98000.17
2019-04-27T00:18:57.874Z,97997.75
2019-04-27T00:21:30.595Z,97990.19
2019-04-27T00:23:59.232Z,97994.95
2019-04-27T00:26:27.945Z,97989.87
2019-04-27T00:28:56.687Z,97991.77
2019-04-27T00:31:25.622Z,97997.08
2019-04-27T00:33:54.414Z,97992.90
2019-04-27T00:36:30.647Z,97994.36
2019-04-27T00:39:23.092Z,97990.41
2019-04-27T00:41:53.140Z,97987.28
2019-04-27T00:44:23.740Z,97991.38
2019-04-27T00:46:53.404Z,97996.37
2019-04-27T00:49:23.797Z,97998.24
2019-04-27T00:51:53.618Z,97997.33
2019-04-27T00:54:23.880Z,98002.99
2019-04-27T00:57:09.310Z,98002.66
2019-04-27T00:59:56.655Z,98000.06
2019-04-27T01:02:59.839Z,98003.45
2019-04-27T01:05:29.496Z,98008.11
2019-04-27T01:07:58.480Z,98015.70
2019-04-27T01:10:27.375Z,98017.51
2019-04-27T01:12:56.082Z,98015.28
2019-04-27T01:15:24.799Z,98021.47
2019-04-27T01:17:53.547Z,98006.80
2019-04-27T01:20:22.252Z,97995.92
2019-04-27T01:22:50.899Z,98002.03
2019-04-27T01:25:21.183Z,97992.62
2019-04-27T01:27:59.541Z,97990.79
2019-04-27T01:30:34.047Z,97993.30
2019-04-27T01:33:02.680Z,97993.70
2019-04-27T01:35:31.313Z,97988.52
2019-04-27T01:38:00.183Z,97994.38
2019-04-27T01:40:29.482Z,97989.52
2019-04-27T01:42:58.840Z,97985.56
2019-04-27T01:45:28.975Z,97983.73
2019-04-27T01:47:59.427Z,97984.86
2019-04-27T01:50:29.160Z,97986.47
2019-04-27T01:52:58.775Z,97983.77
2019-04-27T01:55:27.503Z,97983.66
2019-04-27T01:57:56.151Z,97984.00
2019-04-27T02:00:29.527Z,97982.84
2019-04-27T02:02:59.843Z,97982.20
2019-04-27T02:05:33.732Z,97990.07
2019-04-27T02:08:02.456Z,97983.22
2019-04-27T02:10:31.091Z,97983.66
2019-04-27T02:12:59.719Z,97986.95
2019-04-27T02:15:29.366Z,97987.48
2019-04-27T02:17:59.730Z,97988.70
2019-04-27T02:20:29.972Z,97984.86
2019-04-27T02:22:58.867Z,97989.84
2019-04-27T02:25:29.345Z,97989.56
2019-04-27T02:28:03.363Z,97986.22
2019-04-27T02:30:53.922Z,97984.06
2019-04-27T02:33:30.335Z,97983.52
2019-04-27T02:36:00.280Z,97991.14
2019-04-27T02:38:30.572Z,97982.03
2019-04-27T02:41:00.263Z,97981.84
2019-04-27T02:43:39.928Z,97983.33
2019-04-27T02:46:09.575Z,97995.66
2019-04-27T02:48:53.019Z,97993.59
2019-04-27T02:51:10.531Z,97993.97
2019-04-27T02:53:56.347Z,98003.38
2019-04-27T02:56:25.067Z,97996.98
2019-04-27T02:58:53.708Z,97992.55
2019-04-27T03:01:23.720Z,97999.16
2019-04-27T03:03:52.348Z,97989.59
2019-04-27T03:06:20.961Z,97991.39
2019-04-27T03:08:53.869Z,97995.41
2019-04-27T03:11:20.505Z,97999.19
2019-04-27T03:14:15.128Z,97994.98
2019-04-27T03:16:55.984Z,97998.83
2019-04-27T03:19:42.235Z,97998.20
2019-04-27T03:22:36.095Z,98008.22
2019-04-27T03:25:20.779Z,98009.28
2019-04-27T03:27:50.439Z,98000.09
2019-04-27T03:30:22.775Z,97999.06
2019-04-27T03:32:54.983Z,97999.30
2019-04-27T03:35:22.815Z,97990.45
2019-04-27T03:37:50.290Z,97994.55
2019-04-27T03:40:20.511Z,97997.70
2019-04-27T03:42:51.142Z,97998.97
2019-04-27T03:45:20.323Z,97993.39
2019-04-27T03:47:50.535Z,98006.84
2019-04-27T03:50:24.978Z,98009.43
2019-04-27T03:53:29.759Z,97999.49
2019-04-27T03:56:05.063Z,97999.95
2019-04-27T03:58:40.614Z,98001.97
2019-04-27T04:01:10.535Z,97999.47
2019-04-27T04:03:39.581Z,97994.41
2019-04-27T04:06:10.505Z,97996.39
2019-04-27T04:08:39.727Z,97996.08
2019-04-27T04:11:16.033Z,98001.20
2019-04-27T04:13:49.872Z,97994.67
2019-04-27T04:16:32.483Z,97995.75
2019-04-27T04:19:06.503Z,97995.31
2019-04-27T04:21:35.140Z,98002.28
2019-04-27T04:24:04.221Z,97999.59
2019-04-27T04:26:33.267Z,97996.17
2019-04-27T04:29:03.139Z,97995.05
2019-04-27T04:31:33.285Z,97998.81
2019-04-27T04:34:02.244Z,97996.72
2019-04-27T04:36:31.237Z,98000.62
2019-04-27T04:39:00.681Z,98008.08
2019-04-27T04:41:43.848Z,97998.48
2019-04-27T04:44:20.137Z,98004.91
2019-04-27T04:47:05.109Z,98014.59
2019-04-27T04:49:33.737Z,98010.50
2019-04-27T04:52:02.832Z,98006.55
2019-04-27T04:54:31.496Z,98006.63
2019-04-27T04:57:01.006Z,98016.15
2019-04-27T04:59:29.652Z,98017.86
2019-04-27T05:02:00.275Z,98018.17
2019-04-27T05:04:29.180Z,98017.20
2019-04-27T05:06:59.166Z,98016.98
2019-04-27T05:09:29.606Z,98020.83
2019-04-27T05:11:58.728Z,98020.13
2019-04-27T05:14:28.863Z,98019.25
2019-04-27T05:16:59.212Z,98016.95
2019-04-27T05:19:28.870Z,98018.66
2019-04-27T05:21:59.324Z,98015.30
2019-04-27T05:24:29.256Z,98009.73
2019-04-27T05:26:59.075Z,98014.84
2019-04-27T05:29:29.262Z,98019.37
2019-04-27T05:31:59.215Z,98016.77
2019-04-27T05:34:29.472Z,98015.57
2019-04-27T05:37:00.735Z,98008.77
2019-04-27T05:39:30.030Z,98011.11
2019-04-27T05:41:59.761Z,98018.74
2019-04-27T05:44:45.676Z,98012.84
2019-04-27T05:47:19.407Z,98020.45
2019-04-27T05:49:52.343Z,98021.69
2019-04-27T05:52:30.447Z,98023.62
2019-04-27T05:54:59.747Z,98019.45
2019-04-27T05:57:31.370Z,98022.28
2019-04-27T06:00:02.077Z,98023.75
2019-04-27T06:02:31.996Z,98022.60
2019-04-27T06:05:00.650Z,98027.77
2019-04-27T06:07:29.809Z,98027.25
2019-04-27T06:09:59.893Z,98027.36
2019-04-27T06:12:29.709Z,98022.38
2019-04-27T06:14:59.991Z,98024.66
2019-04-27T06:17:34.102Z,98018.06
2019-04-27T06:20:02.747Z,98013.83
2019-04-27T06:22:31.379Z,98022.25
2019-04-27T06:25:00.473Z,98012.87
2019-04-27T06:27:30.947Z,98011.42
2019-04-27T06:29:59.829Z,98023.19
2019-04-27T06:32:29.538Z,98022.50
2019-04-27T06:34:58.944Z,98027.83
2019-04-27T06:37:29.331Z,98025.13
2019-04-27T06:39:59.770Z,98020.34
2019-04-27T06:42:29.680Z,98029.31
2019-04-27T06:44:59.919Z,98021.81
2019-04-27T06:47:29.522Z,98023.88
2019-04-27T06:49:58.905Z,98017.41
2019-04-27T06:52:29.105Z,98022.04
2019-04-27T06:55:00.664Z,98030.67
2019-04-27T06:57:30.341Z,98025.65
2019-04-27T06:59:59.253Z,98016.95
2019-04-27T07:02:29.083Z,98019.03
2019-04-27T07:04:59.255Z,98022.14
2019-04-27T07:07:29.428Z,98019.84
2019-04-27T07:09:59.406Z,98020.50
2019-04-27T07:12:28.762Z,98026.91
2019-04-27T07:14:59.239Z,98025.10
2019-04-27T07:17:28.977Z,98023.30
2019-04-27T07:19:59.405Z,98025.07
2019-04-27T07:22:29.834Z,98020.78
2019-04-27T07:24:59.112Z,98026.75
2019-04-27T07:27:29.165Z,98026.61
2019-04-27T07:29:59.536Z,98024.55
2019-04-27T07:32:29.224Z,98029.89
2019-04-27T07:34:58.613Z,98025.58
2019-04-27T07:37:29.258Z,98029.31
2019-04-27T07:39:59.139Z,98034.77
2019-04-27T07:42:30.257Z,98039.79
2019-04-27T07:45:06.235Z,98035.30
2019-04-27T07:47:34.883Z,98031.95
2019-04-27T07:50:03.891Z,98039.16
2019-04-27T07:52:32.931Z,98038.55
2019-04-27T07:55:01.600Z,98037.27
2019-04-27T07:57:30.255Z,98044.41
2019-04-27T07:59:59.622Z,98040.23
2019-04-27T08:02:29.075Z,98045.66
2019-04-27T08:04:59.453Z,98041.98
2019-04-27T08:07:29.153Z,98042.78
2019-04-27T08:10:01.184Z,98036.13
2019-04-27T08:12:28.891Z,98038.86
2019-04-27T08:14:57.639Z,98040.20
2019-04-27T08:17:28.340Z,98040.00
2019-04-27T08:19:57.092Z,98039.73
2019-04-27T08:22:25.754Z,98032.18
2019-04-27T08:24:54.400Z,98035.31
2019-04-27T08:27:34.020Z,98038.06
2019-04-27T08:30:20.443Z,98037.84
2019-04-27T08:32:50.120Z,98038.38
2019-04-27T08:35:19.511Z,98039.58
2019-04-27T08:37:49.518Z,98040.84
2019-04-27T08:40:19.234Z,98039.25
2019-04-27T08:42:49.162Z,98037.48
2019-04-27T08:45:19.343Z,98033.33
2019-04-27T08:47:49.740Z,98036.09
2019-04-27T08:50:19.154Z,98036.77
2019-04-27T08:52:49.940Z,98033.95
2019-04-27T08:55:19.604Z,98037.10
2019-04-27T08:57:49.054Z,98038.08
2019-04-27T09:00:19.329Z,98040.20
2019-04-27T09:02:50.337Z,98034.95
2019-04-27T09:05:25.527Z,98037.02
2019-04-27T09:08:01.956Z,98031.72
2019-04-27T09:10:44.912Z,98034.84
2019-04-27T09:13:23.941Z,98034.86
2019-04-27T09:15:59.922Z,98023.14
2019-04-27T09:18:32.361Z,98023.02
2019-04-27T09:21:01.928Z,98029.02
2019-04-27T09:23:30.648Z,98026.79
2019-04-27T09:25:59.559Z,98024.56
2019-04-27T09:28:29.484Z,98021.76
2019-04-27T09:30:58.857Z,98023.59
2019-04-27T09:33:27.633Z,98023.34
2019-04-27T09:35:56.772Z,98016.28
2019-04-27T09:38:26.464Z,98025.27
2019-04-27T09:40:57.846Z,98015.61
2019-04-27T09:43:26.413Z,98014.12
2019-04-27T09:45:55.875Z,98012.63
2019-04-27T09:48:25.979Z,98020.48
2019-04-27T09:50:56.052Z,98012.31
2019-04-27T09:53:24.847Z,98006.88
2019-04-27T09:55:53.483Z,98005.42
2019-04-27T09:58:22.307Z,97999.47
2019-04-27T10:00:50.959Z,97998.19
2019-04-27T10:03:19.669Z,98003.03
2019-04-27T10:05:48.315Z,98002.30
2019-04-27T10:08:17.054Z,97999.67
2019-04-27T10:10:46.012Z,98003.41
2019-04-27T10:13:16.067Z,97998.32
2019-04-27T10:15:45.945Z,98001.05
2019-04-27T10:18:16.341Z,97993.58
2019-04-27T10:20:56.905Z,97997.33
2019-04-27T10:23:15.466Z,97988.08
2019-04-27T10:25:45.682Z,97983.63
2019-04-27T10:28:14.552Z,97978.78
2019-04-27T10:30:43.192Z,97982.47
2019-04-27T10:33:11.892Z,97982.77
2019-04-27T10:35:40.617Z,97979.35
2019-04-27T10:38:09.268Z,97977.72
2019-04-27T10:40:37.934Z,97981.97
2019-04-27T10:43:06.666Z,97987.03
2019-04-27T10:45:36.043Z,97969.03
2019-04-27T10:48:05.772Z,97974.28
2019-04-27T10:50:36.446Z,97969.45
2019-04-27T10:53:06.839Z,97966.94
2019-04-27T10:55:36.269Z,97957.96
2019-04-27T10:58:05.397Z,97950.84
2019-04-27T11:00:41.937Z,97946.22
2019-04-27T11:03:11.460Z,97948.96
2019-04-27T11:05:58.761Z,97941.30
2019-04-27T11:08:27.400Z,97941.02
2019-04-27T11:10:56.468Z,97933.80
2019-04-27T11:13:25.791Z,97924.28
2019-04-27T11:15:54.557Z,97914.03
2019-04-27T11:18:25.780Z,97914.30
2019-04-27T11:20:56.629Z,97904.69
2019-04-27T11:23:26.101Z,97910.61
2019-04-27T11:25:55.638Z,97911.56
2019-04-27T11:28:25.861Z,97905.25
2019-04-27T11:30:54.707Z,97920.67
2019-04-27T11:33:23.367Z,97910.23
2019-04-27T11:36:11.095Z,97907.50
2019-04-27T11:38:39.746Z,97897.05
2019-04-27T11:41:08.384Z,97899.23
2019-04-27T11:43:37.104Z,97885.53
2019-04-27T11:46:06.148Z,97880.44
2019-04-27T11:48:36.138Z,97874.84
2019-04-27T11:51:06.921Z,97869.27
2019-04-27T11:53:35.991Z,97874.77
2019-04-27T11:56:04.622Z,97853.90
2019-04-27T11:58:34.955Z,97844.67
2019-04-27T12:01:03.944Z,97838.59
2019-04-27T12:03:32.588Z,97836.86
2019-04-27T12:06:01.549Z,97835.92
2019-04-27T12:08:30.182Z,97829.98
2019-04-27T12:10:58.831Z,97836.30
2019-04-27T12:13:28.424Z,97820.39
2019-04-27T12:15:58.092Z,97815.80
2019-04-27T12:18:28.430Z,97805.42
2019-04-27T12:20:58.263Z,97810.90
2019-04-27T12:23:35.614Z,97798.61
2019-04-27T12:25:59.553Z,97795.33
2019-04-27T12:28:38.777Z,97779.05
2019-04-27T12:31:12.849Z,97784.00
2019-04-27T12:33:42.607Z,97778.01
2019-04-27T12:36:12.443Z,97777.62
2019-04-27T12:38:42.208Z,97773.14
2019-04-27T12:41:11.958Z,97766.48
2019-04-27T12:43:41.734Z,97766.75
2019-04-27T12:46:11.530Z,97769.98
2019-04-27T12:48:41.572Z,97772.98
2019-04-27T12:51:11.392Z,97770.13
2019-04-27T12:53:56.862Z,97779.94
2019-04-27T12:56:46.298Z,97776.56
2019-04-27T12:59:37.834Z,97773.38
2019-04-27T13:02:07.953Z,97767.59
2019-04-27T13:04:38.406Z,97756.17
2019-04-27T13:07:08.186Z,97759.77
2019-04-27T13:09:37.968Z,97762.53
2019-04-27T13:12:06.812Z,97759.95
2019-04-27T13:14:36.487Z,97806.16
2019-04-27T13:17:06.282Z,97821.55
2019-04-27T13:19:36.567Z,97830.71
2019-04-27T13:22:06.475Z,97842.52
2019-04-27T13:24:35.701Z,97842.48
2019-04-27T13:27:06.392Z,97830.42
2019-04-27T13:29:35.699Z,97832.26
2019-04-27T13:32:06.067Z,97820.56
2019-04-27T13:34:36.361Z,97831.80
2019-04-27T13:37:26.290Z,97834.31
2019-04-27T13:40:06.074Z,97836.49
2019-04-27T13:42:26.863Z,97833.87
2019-04-27T13:44:55.787Z,97828.14
2019-04-27T13:47:42.258Z,97821.12
2019-04-27T13:50:25.332Z,97817.00
2019-04-27T13:52:54.038Z,97814.33
2019-04-27T13:55:23.016Z,97803.07
2019-04-27T13:57:51.694Z,97806.63
2019-04-27T14:00:20.818Z,97803.83
2019-04-27T14:02:49.470Z,97797.02
2019-04-27T14:05:18.220Z,97799.64
2019-04-27T14:07:46.877Z,97801.25
2019-04-27T14:10:15.800Z,97790.45
2019-04-27T14:12:44.452Z,97789.42
2019-04-27T14:15:13.164Z,97774.67
2019-04-27T14:17:41.845Z,97760.91
2019-04-27T14:20:10.540Z,97743.66
2019-04-27T14:22:39.252Z,97741.70
2019-04-27T14:25:08.632Z,97747.76
2019-04-27T14:27:40.854Z,97745.26
2019-04-27T14:30:11.748Z,97758.52
2019-04-27T14:32:42.286Z,97761.50
2019-04-27T14:35:11.240Z,97755.86
2019-04-27T14:37:40.296Z,97756.09
2019-04-27T14:40:09.219Z,97760.50
2019-04-27T14:42:38.007Z,97745.52
2019-04-27T14:45:08.970Z,97743.78
2019-04-27T14:47:38.282Z,97747.05
2019-04-27T14:50:08.875Z,97748.61
2019-04-27T14:52:39.068Z,97757.15
2019-04-27T14:55:08.684Z,97757.07
2019-04-27T14:57:39.348Z,97756.36
2019-04-27T15:00:10.201Z,97756.52
2019-04-27T15:02:40.114Z,97752.98
2019-04-27T15:05:08.786Z,97746.80
2019-04-27T15:07:37.678Z,97748.23
2019-04-27T15:10:06.690Z,97751.98
2019-04-27T15:12:35.464Z,97741.39
2019-04-27T15:15:04.551Z,97738.34
2019-04-27T15:17:33.212Z,97736.49
2019-04-27T15:20:06.411Z,97728.47
2019-04-27T15:22:35.414Z,97734.78
2019-04-27T15:25:12.326Z,97735.69
2019-04-27T15:27:42.126Z,97725.55
2019-04-27T15:30:15.532Z,97726.09
2019-04-27T15:33:02.339Z,97729.91
2019-04-27T15:35:43.748Z,97730.21
2019-04-27T15:38:14.469Z,97722.86
2019-04-27T15:41:02.191Z,97712.59
2019-04-27T15:43:33.378Z,97718.34
2019-04-27T15:46:02.163Z,97706.95
2019-04-27T15:48:33.975Z,97708.56
2019-04-27T15:51:05.113Z,97700.97
2019-04-27T15:53:33.068Z,97705.85
2019-04-27T15:56:02.053Z,97694.94
2019-04-27T15:58:31.286Z,97697.55
2019-04-27T16:01:02.404Z,97699.31
2019-04-27T16:03:31.324Z,97698.16
2019-04-27T16:06:03.184Z,97697.75
2019-04-27T16:08:30.789Z,97704.84
2019-04-27T16:10:59.528Z,97706.45
2019-04-27T16:13:32.677Z,97702.10
2019-04-27T16:15:58.669Z,97708.42
2019-04-27T16:18:31.047Z,97721.75
2019-04-27T16:20:58.600Z,97718.09
2019-04-27T16:23:28.247Z,97712.13
2019-04-27T16:25:58.191Z,97701.90
2019-04-27T16:28:27.473Z,97699.48
2019-04-27T16:30:56.175Z,97694.19
2019-04-27T16:33:24.855Z,97697.42
2019-04-27T16:35:59.474Z,97693.78
2019-04-27T16:38:35.124Z,97696.40
2019-04-27T16:41:03.967Z,97694.46
2019-04-27T16:43:33.008Z,97690.91
2019-04-27T16:46:04.201Z,97695.18
2019-04-27T16:48:34.680Z,97694.31
2019-04-27T16:51:03.096Z,97687.07
2019-04-27T16:53:39.545Z,97694.47
2019-04-27T16:56:06.186Z,97695.34
2019-04-27T16:58:39.162Z,97689.94
2019-04-27T17:01:11.126Z,97690.30
2019-04-27T17:03:41.417Z,97688.86
2019-04-27T17:06:10.235Z,97690.20
2019-04-27T17:08:39.484Z,97697.44
2019-04-27T17:11:13.617Z,97691.45
2019-04-27T17:13:44.102Z,97692.50
2019-04-27T17:16:35.150Z,97694.38
2019-04-27T17:19:13.298Z,97699.64
2019-04-27T17:21:41.951Z,97702.59
2019-04-27T17:24:10.588Z,97708.48
2019-04-27T17:26:40.226Z,97704.41
2019-04-27T17:29:16.406Z,97701.45
2019-04-27T17:31:46.202Z,97700.61
2019-04-27T17:34:19.014Z,97702.41
2019-04-27T17:36:49.787Z,97700.43
2019-04-27T17:39:19.359Z,97701.45
2019-04-27T17:41:49.215Z,97697.66
2019-04-27T17:44:22.609Z,97695.45
2019-04-27T17:46:51.202Z,97687.48
2019-04-27T17:49:19.005Z,97692.64
2019-04-27T17:51:48.434Z,97689.13
2019-04-27T17:54:18.201Z,97693.17
2019-04-27T17:56:49.430Z,97690.75
2019-04-27T17:59:20.680Z,97689.95
2019-04-27T18:01:53.865Z,97684.45
2019-04-27T18:04:20.427Z,97687.04
2019-04-27T18:06:49.075Z,97698.84
2019-04-27T18:09:19.527Z,97691.67
2019-04-27T18:11:50.200Z,97702.83
2019-04-27T18:14:19.258Z,97712.39
2019-04-27T18:16:48.354Z,97712.06
2019-04-27T18:19:25.615Z,97710.99
2019-04-27T18:22:04.695Z,97713.52
2019-04-27T18:24:41.595Z,97715.13
2019-04-27T18:27:20.374Z,97716.58
2019-04-27T18:29:49.017Z,97717.34
2019-04-27T18:32:17.832Z,97716.98
2019-04-27T18:34:49.351Z,97717.23
2019-04-27T18:37:20.965Z,97722.45
2019-04-27T18:39:50.899Z,97720.87
2019-04-27T18:42:18.230Z,97723.45
2019-04-27T18:44:48.619Z,97720.23
2019-04-27T18:47:17.386Z,97721.77
2019-04-27T18:50:23.208Z,97736.87
2019-04-27T18:52:55.049Z,97744.76
2019-04-27T18:55:23.771Z,97748.51
2019-04-27T18:57:54.313Z,97739.98
2019-04-27T19:00:22.996Z,97745.30
2019-04-27T19:02:51.635Z,97747.78
2019-04-27T19:05:20.275Z,97758.52
2019-04-27T19:07:49.288Z,97821.81
2019-04-27T19:10:19.234Z,97856.52
2019-04-27T19:12:48.497Z,97880.28
2019-04-27T19:15:18.361Z,97882.37
2019-04-27T19:17:48.900Z,97881.73
2019-04-27T19:20:18.605Z,97888.61
2019-04-27T19:22:49.025Z,97904.11
2019-04-27T19:25:52.251Z,97901.89
2019-04-27T19:28:40.982Z,97908.05
2019-04-27T19:31:14.417Z,97922.80
2019-04-27T19:33:43.243Z,97927.44
2019-04-27T19:36:11.874Z,97946.72
2019-04-27T19:38:41.839Z,97941.12
2019-04-27T19:41:10.558Z,97958.52
2019-04-27T19:43:39.212Z,97957.55
2019-04-27T19:46:07.866Z,97964.45
2019-04-27T19:48:36.508Z,97966.59
2019-04-27T19:51:05.208Z,97961.59
2019-04-27T19:53:33.955Z,97968.75
2019-04-27T19:56:02.897Z,97975.06
2019-04-27T19:58:35.152Z,97988.27
2019-04-27T20:01:12.004Z,97991.82
2019-04-27T20:03:46.357Z,97987.80
2019-04-27T20:06:15.305Z,97966.82
2019-04-27T20:08:48.897Z,97974.97
2019-04-27T20:11:17.691Z,97977.64
2019-04-27T20:13:46.347Z,97978.86
2019-04-27T20:16:15.093Z,97971.06
2019-04-27T20:18:43.731Z,97976.75
2019-04-27T20:21:12.463Z,97981.25
2019-04-27T20:23:41.215Z,97979.67
2019-04-27T20:26:10.207Z,97987.20
2019-04-27T20:28:38.856Z,97997.05
2019-04-27T20:31:07.557Z,97985.56
2019-04-27T20:33:36.186Z,97992.73
2019-04-27T20:36:04.852Z,98000.48
2019-04-27T20:38:33.503Z,98013.14
2019-04-27T20:41:02.149Z,98028.14
2019-04-27T20:43:31.804Z,98037.71
2019-04-27T20:46:00.942Z,98042.17
2019-04-27T20:48:31.184Z,98043.53
2019-04-27T20:51:01.315Z,98056.13
2019-04-27T20:53:35.394Z,98060.31
2019-04-27T20:56:04.050Z,98068.84
2019-04-27T20:58:32.715Z,98067.32
2019-04-27T21:01:01.749Z,98070.02
2019-04-27T21:03:36.122Z,98068.66
2019-04-27T21:06:23.863Z,98064.44
2019-04-27T21:08:52.552Z,98069.38
2019-04-27T21:11:21.185Z,98065.27
2019-04-27T21:13:51.615Z,98061.28
2019-04-27T21:16:21.117Z,98064.75
2019-04-27T21:18:51.382Z,98054.58
2019-04-27T21:21:20.200Z,98055.91
2019-04-27T21:23:48.905Z,98055.93
2019-04-27T21:26:17.547Z,98060.59
2019-04-27T21:28:46.187Z,98059.63
2019-04-27T21:31:14.831Z,98064.13
2019-04-27T21:33:43.455Z,98071.38
2019-04-27T21:36:12.110Z,98071.00
2019-04-27T21:38:41.167Z,98063.44
2019-04-27T21:41:11.190Z,98060.66
2019-04-27T21:43:39.863Z,98057.83
2019-04-27T21:46:08.547Z,98062.02
2019-04-27T21:48:37.192Z,98075.91
2019-04-27T21:51:05.902Z,98066.63
2019-04-27T21:53:52.190Z,98066.69
2019-04-27T21:56:21.136Z,98059.38
2019-04-27T21:58:51.132Z,98065.58
2019-04-27T22:01:26.164Z,98071.05
2019-04-27T22:03:55.154Z,98084.24
2019-04-27T22:06:23.838Z,98091.82
2019-04-27T22:08:53.576Z,98101.16
2019-04-27T22:11:22.225Z,98102.03
2019-04-27T22:13:51.341Z,98107.48
2019-04-27T22:16:21.342Z,98106.98
2019-04-27T22:18:51.914Z,98100.54
2019-04-27T22:21:21.645Z,98096.06
2019-04-27T22:23:55.699Z,98091.64
2019-04-27T22:26:24.339Z,98095.81
2019-04-27T22:28:52.975Z,98097.96
2019-04-27T22:31:22.691Z,98109.52
2019-04-27T22:33:54.386Z,98111.55
2019-04-27T22:36:21.760Z,98114.73
2019-04-27T22:38:51.568Z,98114.86
2019-04-27T22:41:27.715Z,98117.81
2019-04-27T22:44:15.448Z,98114.86
2019-04-27T22:46:45.730Z,98111.66
2019-04-27T22:49:14.374Z,98112.47
2019-04-27T22:51:43.236Z,98116.02
2019-04-27T22:54:12.038Z,98123.33
2019-04-27T22:56:42.254Z,98124.98
2019-04-27T22:59:19.200Z,98139.17
2019-04-27T23:02:12.682Z,98131.68
2019-04-27T23:04:44.940Z,98140.70
2019-04-27T23:07:13.692Z,98143.27
2019-04-27T23:09:43.427Z,98151.07
2019-04-27T23:12:12.352Z,98162.80
2019-04-27T23:14:41.516Z,98158.20
2019-04-27T23:17:28.291Z,98167.59
2019-04-27T23:19:57.436Z,98168.27
2019-04-27T23:22:26.289Z,98173.59
2019-04-27T23:24:55.104Z,98181.94
2019-04-27T23:27:23.720Z,98183.92
2019-04-27T23:29:52.533Z,98186.75
2019-04-27T23:32:27.791Z,98192.16
2019-04-27T23:34:56.479Z,98194.67
2019-04-27T23:37:25.131Z,98210.43
2019-04-27T23:39:53.919Z,98211.83
2019-04-27T23:42:22.644Z,98200.34
2019-04-27T23:44:51.285Z,98201.77
2019-04-27T23:47:20.019Z,98198.56
2019-04-27T23:49:48.667Z,98198.62
2019-04-27T23:52:27.915Z,98197.33
2019-04-27T23:54:59.673Z,98197.58
2019-04-27T23:57:31.648Z,98196.72
